sensor_id;sensor_type;location;lat;lon;timestamp;temperature;humidity
31619;DHT22;18230;51.502;7.108;2023-06-22T00:03:17;24.10;99.90
31619;DHT22;18230;51.502;7.108;2023-06-22T00:08:19;24.10;99.90
31619;DHT22;18230;51.502;7.108;2023-06-22T00:13:20;24.30;99.90
31619;DHT22;18230;51.502;7.108;2023-06-22T00:18:21;24.30;99.90
31619;DHT22;18230;51.502;7.108;2023-06-22T00:23:21;24.40;99.90
31619;DHT22;18230;51.502;7.108;2023-06-22T00:28:24;24.20;99.90
31619;DHT22;18230;51.502;7.108;2023-06-22T00:33:24;24.10;99.90
31619;DHT22;18230;51.502;7.108;2023-06-22T00:38:25;24.10;99.90
31619;DHT22;18230;51.502;7.108;2023-06-22T00:43:26;24.00;99.90
31619;DHT22;18230;51.502;7.108;2023-06-22T00:48:26;24.00;99.90
31619;DHT22;18230;51.502;7.108;2023-06-22T00:53:27;23.90;99.90
31619;DHT22;18230;51.502;7.108;2023-06-22T00:58:28;23.80;99.90
31619;DHT22;18230;51.502;7.108;2023-06-22T01:03:29;23.80;99.90
31619;DHT22;18230;51.502;7.108;2023-06-22T01:09:05;23.70;99.90
31619;DHT22;18230;51.502;7.108;2023-06-22T01:19:51;23.70;99.90
31619;DHT22;18230;51.502;7.108;2023-06-22T01:30:10;23.60;99.90
31619;DHT22;18230;51.502;7.108;2023-06-22T01:35:12;23.50;99.90
31619;DHT22;18230;51.502;7.108;2023-06-22T01:40:13;23.40;99.90
31619;DHT22;18230;51.502;7.108;2023-06-22T01:45:17;23.40;99.90
31619;DHT22;18230;51.502;7.108;2023-06-22T01:50:19;23.40;99.90
31619;DHT22;18230;51.502;7.108;2023-06-22T01:55:19;23.20;99.90
31619;DHT22;18230;51.502;7.108;2023-06-22T02:00:21;23.00;99.90
31619;DHT22;18230;51.502;7.108;2023-06-22T02:05:37;23.00;99.90
31619;DHT22;18230;51.502;7.108;2023-06-22T02:10:40;23.10;99.90
31619;DHT22;18230;51.502;7.108;2023-06-22T02:15:42;23.00;99.90
31619;DHT22;18230;51.502;7.108;2023-06-22T02:20:43;23.00;99.90
31619;DHT22;18230;51.502;7.108;2023-06-22T02:25:43;22.90;99.90
31619;DHT22;18230;51.502;7.108;2023-06-22T02:30:44;23.00;99.90
31619;DHT22;18230;51.502;7.108;2023-06-22T02:35:45;23.00;99.90
31619;DHT22;18230;51.502;7.108;2023-06-22T02:40:49;23.00;99.90
31619;DHT22;18230;51.502;7.108;2023-06-22T02:45:50;22.70;99.90
31619;DHT22;18230;51.502;7.108;2023-06-22T02:50:50;22.70;99.90
31619;DHT22;18230;51.502;7.108;2023-06-22T02:55:51;22.50;99.90
31619;DHT22;18230;51.502;7.108;2023-06-22T03:00:52;22.60;99.90
31619;DHT22;18230;51.502;7.108;2023-06-22T03:05:53;22.80;99.90
31619;DHT22;18230;51.502;7.108;2023-06-22T03:10:54;22.90;99.90
31619;DHT22;18230;51.502;7.108;2023-06-22T03:15:55;22.60;99.90
31619;DHT22;18230;51.502;7.108;2023-06-22T03:20:56;22.50;99.90
31619;DHT22;18230;51.502;7.108;2023-06-22T03:25:57;22.40;99.90
31619;DHT22;18230;51.502;7.108;2023-06-22T03:30:58;22.40;99.90
31619;DHT22;18230;51.502;7.108;2023-06-22T03:35:59;22.40;99.90
31619;DHT22;18230;51.502;7.108;2023-06-22T03:41:00;22.40;99.90
31619;DHT22;18230;51.502;7.108;2023-06-22T03:46:00;22.30;99.90
31619;DHT22;18230;51.502;7.108;2023-06-22T03:51:02;22.20;99.90
31619;DHT22;18230;51.502;7.108;2023-06-22T03:56:04;22.30;99.90
31619;DHT22;18230;51.502;7.108;2023-06-22T04:01:05;22.20;99.90
31619;DHT22;18230;51.502;7.108;2023-06-22T04:06:07;22.30;99.90
31619;DHT22;18230;51.502;7.108;2023-06-22T04:11:07;22.30;99.90
31619;DHT22;18230;51.502;7.108;2023-06-22T04:16:08;22.20;99.90
31619;DHT22;18230;51.502;7.108;2023-06-22T04:21:10;22.30;99.90
31619;DHT22;18230;51.502;7.108;2023-06-22T04:26:11;22.30;99.90
31619;DHT22;18230;51.502;7.108;2023-06-22T04:31:12;22.10;99.90
31619;DHT22;18230;51.502;7.108;2023-06-22T04:36:12;22.10;99.90
31619;DHT22;18230;51.502;7.108;2023-06-22T04:41:13;22.10;99.90
31619;DHT22;18230;51.502;7.108;2023-06-22T04:46:23;22.10;99.90
31619;DHT22;18230;51.502;7.108;2023-06-22T04:51:24;22.10;99.90
31619;DHT22;18230;51.502;7.108;2023-06-22T04:56:31;22.30;99.90
31619;DHT22;18230;51.502;7.108;2023-06-22T05:01:32;22.20;99.90
31619;DHT22;18230;51.502;7.108;2023-06-22T05:06:33;22.10;99.90
31619;DHT22;18230;51.502;7.108;2023-06-22T05:11:34;22.10;99.90
31619;DHT22;18230;51.502;7.108;2023-06-22T05:16:35;22.00;99.90
31619;DHT22;18230;51.502;7.108;2023-06-22T05:21:37;21.90;99.90
31619;DHT22;18230;51.502;7.108;2023-06-22T05:26:37;21.80;99.90
31619;DHT22;18230;51.502;7.108;2023-06-22T05:31:38;21.80;99.90
31619;DHT22;18230;51.502;7.108;2023-06-22T05:36:40;21.80;99.90
31619;DHT22;18230;51.502;7.108;2023-06-22T05:41:41;21.80;99.90
31619;DHT22;18230;51.502;7.108;2023-06-22T05:46:44;21.80;99.90
31619;DHT22;18230;51.502;7.108;2023-06-22T05:51:46;21.60;99.90
31619;DHT22;18230;51.502;7.108;2023-06-22T05:56:47;21.60;99.90
31619;DHT22;18230;51.502;7.108;2023-06-22T06:01:48;21.60;99.90
31619;DHT22;18230;51.502;7.108;2023-06-22T06:06:52;21.60;99.90
31619;DHT22;18230;51.502;7.108;2023-06-22T06:11:52;21.70;99.90
31619;DHT22;18230;51.502;7.108;2023-06-22T06:16:53;21.70;99.90
31619;DHT22;18230;51.502;7.108;2023-06-22T06:21:54;21.60;99.90
31619;DHT22;18230;51.502;7.108;2023-06-22T06:26:54;21.70;99.90
31619;DHT22;18230;51.502;7.108;2023-06-22T06:31:55;21.90;99.90
31619;DHT22;18230;51.502;7.108;2023-06-22T06:36:57;21.90;99.90
31619;DHT22;18230;51.502;7.108;2023-06-22T06:41:58;21.90;99.90
31619;DHT22;18230;51.502;7.108;2023-06-22T06:46:58;22.00;99.90
31619;DHT22;18230;51.502;7.108;2023-06-22T06:51:59;22.20;99.90
31619;DHT22;18230;51.502;7.108;2023-06-22T06:57:00;22.40;99.90
31619;DHT22;18230;51.502;7.108;2023-06-22T07:02:03;22.20;99.90
31619;DHT22;18230;51.502;7.108;2023-06-22T07:07:05;22.20;99.90
31619;DHT22;18230;51.502;7.108;2023-06-22T07:12:06;22.20;99.90
31619;DHT22;18230;51.502;7.108;2023-06-22T07:17:07;22.10;99.90
31619;DHT22;18230;51.502;7.108;2023-06-22T07:22:08;22.20;99.90
31619;DHT22;18230;51.502;7.108;2023-06-22T07:27:08;22.20;99.90
31619;DHT22;18230;51.502;7.108;2023-06-22T07:32:11;22.30;99.90
31619;DHT22;18230;51.502;7.108;2023-06-22T07:37:12;22.20;99.90
31619;DHT22;18230;51.502;7.108;2023-06-22T07:42:13;22.30;99.90
31619;DHT22;18230;51.502;7.108;2023-06-22T07:47:19;22.50;99.90
31619;DHT22;18230;51.502;7.108;2023-06-22T07:52:20;22.80;99.90
31619;DHT22;18230;51.502;7.108;2023-06-22T07:57:21;23.00;99.90
31619;DHT22;18230;51.502;7.108;2023-06-22T08:02:22;23.00;99.90
31619;DHT22;18230;51.502;7.108;2023-06-22T08:07:23;23.00;99.90
31619;DHT22;18230;51.502;7.108;2023-06-22T08:12:24;23.10;99.90
31619;DHT22;18230;51.502;7.108;2023-06-22T08:17:25;23.30;99.90
31619;DHT22;18230;51.502;7.108;2023-06-22T08:22:25;23.50;99.90
31619;DHT22;18230;51.502;7.108;2023-06-22T08:27:26;23.50;99.90
31619;DHT22;18230;51.502;7.108;2023-06-22T08:32:28;23.40;99.90
31619;DHT22;18230;51.502;7.108;2023-06-22T08:37:29;23.50;99.90
31619;DHT22;18230;51.502;7.108;2023-06-22T08:42:40;23.50;99.90
31619;DHT22;18230;51.502;7.108;2023-06-22T08:47:42;23.60;99.90
31619;DHT22;18230;51.502;7.108;2023-06-22T08:52:43;23.70;99.90
31619;DHT22;18230;51.502;7.108;2023-06-22T08:57:52;23.80;99.90
31619;DHT22;18230;51.502;7.108;2023-06-22T09:02:53;23.90;99.90
31619;DHT22;18230;51.502;7.108;2023-06-22T09:07:56;23.80;99.90
31619;DHT22;18230;51.502;7.108;2023-06-22T09:12:57;23.80;99.90
31619;DHT22;18230;51.502;7.108;2023-06-22T09:17:58;23.90;99.90
31619;DHT22;18230;51.502;7.108;2023-06-22T09:22:59;23.90;99.90
31619;DHT22;18230;51.502;7.108;2023-06-22T09:27:59;23.90;99.90
31619;DHT22;18230;51.502;7.108;2023-06-22T09:33:00;24.20;99.90
31619;DHT22;18230;51.502;7.108;2023-06-22T09:38:01;24.30;99.90
31619;DHT22;18230;51.502;7.108;2023-06-22T09:43:02;24.40;99.90
31619;DHT22;18230;51.502;7.108;2023-06-22T09:48:03;24.60;99.90
31619;DHT22;18230;51.502;7.108;2023-06-22T09:53:04;24.80;99.90
31619;DHT22;18230;51.502;7.108;2023-06-22T09:58:04;24.90;99.90
31619;DHT22;18230;51.502;7.108;2023-06-22T10:03:05;24.90;99.90
31619;DHT22;18230;51.502;7.108;2023-06-22T10:08:06;24.90;99.90
31619;DHT22;18230;51.502;7.108;2023-06-22T10:13:09;25.10;99.90
31619;DHT22;18230;51.502;7.108;2023-06-22T10:18:11;25.40;99.90
31619;DHT22;18230;51.502;7.108;2023-06-22T10:23:12;25.60;99.90
31619;DHT22;18230;51.502;7.108;2023-06-22T10:28:13;26.00;99.90
31619;DHT22;18230;51.502;7.108;2023-06-22T10:33:14;26.00;99.90
31619;DHT22;18230;51.502;7.108;2023-06-22T10:38:15;26.20;99.90
31619;DHT22;18230;51.502;7.108;2023-06-22T10:43:17;26.40;99.90
31619;DHT22;18230;51.502;7.108;2023-06-22T10:48:18;26.70;99.90
31619;DHT22;18230;51.502;7.108;2023-06-22T10:53:20;26.50;99.90
31619;DHT22;18230;51.502;7.108;2023-06-22T10:58:21;26.40;99.90
31619;DHT22;18230;51.502;7.108;2023-06-22T11:03:24;26.20;99.90
31619;DHT22;18230;51.502;7.108;2023-06-22T11:08:28;26.20;99.90
31619;DHT22;18230;51.502;7.108;2023-06-22T11:19:17;26.10;99.90
31619;DHT22;18230;51.502;7.108;2023-06-22T11:24:17;26.00;99.90
31619;DHT22;18230;51.502;7.108;2023-06-22T11:29:21;26.00;99.90
31619;DHT22;18230;51.502;7.108;2023-06-22T11:34:22;25.90;99.90
31619;DHT22;18230;51.502;7.108;2023-06-22T11:39:22;25.80;99.90
31619;DHT22;18230;51.502;7.108;2023-06-22T11:44:23;25.70;99.90
31619;DHT22;18230;51.502;7.108;2023-06-22T11:49:23;25.50;99.90
31619;DHT22;18230;51.502;7.108;2023-06-22T11:54:24;25.40;99.90
31619;DHT22;18230;51.502;7.108;2023-06-22T11:59:25;25.40;99.90
31619;DHT22;18230;51.502;7.108;2023-06-22T12:04:25;25.20;99.90
31619;DHT22;18230;51.502;7.108;2023-06-22T12:09:26;24.90;99.90
31619;DHT22;18230;51.502;7.108;2023-06-22T12:14:27;24.50;99.90
31619;DHT22;18230;51.502;7.108;2023-06-22T12:19:27;24.20;99.90
31619;DHT22;18230;51.502;7.108;2023-06-22T12:24:28;24.10;99.90
31619;DHT22;18230;51.502;7.108;2023-06-22T12:29:29;24.10;99.90
31619;DHT22;18230;51.502;7.108;2023-06-22T12:34:30;23.90;99.90
31619;DHT22;18230;51.502;7.108;2023-06-22T12:39:31;23.80;99.90
31619;DHT22;18230;51.502;7.108;2023-06-22T12:44:31;23.70;99.90
31619;DHT22;18230;51.502;7.108;2023-06-22T12:49:32;23.60;99.90
31619;DHT22;18230;51.502;7.108;2023-06-22T12:54:33;23.50;99.90
31619;DHT22;18230;51.502;7.108;2023-06-22T12:59:33;23.60;99.90
31619;DHT22;18230;51.502;7.108;2023-06-22T13:04:34;23.50;99.90
31619;DHT22;18230;51.502;7.108;2023-06-22T13:09:36;23.40;99.90
31619;DHT22;18230;51.502;7.108;2023-06-22T13:14:37;23.30;99.90
31619;DHT22;18230;51.502;7.108;2023-06-22T13:19:37;23.40;99.90
31619;DHT22;18230;51.502;7.108;2023-06-22T13:24:38;23.40;99.90
31619;DHT22;18230;51.502;7.108;2023-06-22T13:29:39;23.60;99.90
31619;DHT22;18230;51.502;7.108;2023-06-22T13:34:39;23.60;99.90
31619;DHT22;18230;51.502;7.108;2023-06-22T13:39:41;23.60;99.90
31619;DHT22;18230;51.502;7.108;2023-06-22T13:44:41;23.80;99.90
31619;DHT22;18230;51.502;7.108;2023-06-22T13:49:42;23.80;99.90
31619;DHT22;18230;51.502;7.108;2023-06-22T13:54:43;23.80;99.90
31619;DHT22;18230;51.502;7.108;2023-06-22T13:59:43;23.80;99.90
31619;DHT22;18230;51.502;7.108;2023-06-22T14:04:44;23.70;99.90
31619;DHT22;18230;51.502;7.108;2023-06-22T14:09:45;23.80;99.90
31619;DHT22;18230;51.502;7.108;2023-06-22T14:14:45;23.90;99.90
31619;DHT22;18230;51.502;7.108;2023-06-22T14:19:46;23.80;99.90
31619;DHT22;18230;51.502;7.108;2023-06-22T14:24:47;23.90;99.90
31619;DHT22;18230;51.502;7.108;2023-06-22T14:29:48;23.90;99.90
31619;DHT22;18230;51.502;7.108;2023-06-22T14:34:49;23.80;99.90
31619;DHT22;18230;51.502;7.108;2023-06-22T14:39:50;23.80;99.90
31619;DHT22;18230;51.502;7.108;2023-06-22T14:44:51;23.80;99.90
31619;DHT22;18230;51.502;7.108;2023-06-22T14:49:51;23.60;99.90
31619;DHT22;18230;51.502;7.108;2023-06-22T14:54:52;23.60;99.90
31619;DHT22;18230;51.502;7.108;2023-06-22T14:59:53;23.90;99.90
31619;DHT22;18230;51.502;7.108;2023-06-22T15:04:54;23.80;99.90
31619;DHT22;18230;51.502;7.108;2023-06-22T15:09:55;23.60;99.90
31619;DHT22;18230;51.502;7.108;2023-06-22T15:14:56;23.50;99.90
31619;DHT22;18230;51.502;7.108;2023-06-22T15:19:58;23.40;99.90
31619;DHT22;18230;51.502;7.108;2023-06-22T15:24:58;23.30;99.90
31619;DHT22;18230;51.502;7.108;2023-06-22T15:29:59;23.30;99.90
31619;DHT22;18230;51.502;7.108;2023-06-22T15:35:00;23.20;99.90
31619;DHT22;18230;51.502;7.108;2023-06-22T15:40:01;23.20;99.90
31619;DHT22;18230;51.502;7.108;2023-06-22T15:45:02;23.20;99.90
31619;DHT22;18230;51.502;7.108;2023-06-22T15:50:03;22.90;99.90
31619;DHT22;18230;51.502;7.108;2023-06-22T15:55:04;22.90;99.90
31619;DHT22;18230;51.502;7.108;2023-06-22T16:00:06;22.80;99.90
31619;DHT22;18230;51.502;7.108;2023-06-22T16:05:08;22.40;99.90
31619;DHT22;18230;51.502;7.108;2023-06-22T16:10:10;21.60;99.90
31619;DHT22;18230;51.502;7.108;2023-06-22T16:15:11;21.30;99.90
31619;DHT22;18230;51.502;7.108;2023-06-22T16:20:12;21.00;99.90
31619;DHT22;18230;51.502;7.108;2023-06-22T16:25:13;20.80;99.90
31619;DHT22;18230;51.502;7.108;2023-06-22T16:30:13;20.70;99.90
31619;DHT22;18230;51.502;7.108;2023-06-22T16:35:21;20.60;99.90
31619;DHT22;18230;51.502;7.108;2023-06-22T16:40:22;20.60;99.90
31619;DHT22;18230;51.502;7.108;2023-06-22T16:45:23;20.60;99.90
31619;DHT22;18230;51.502;7.108;2023-06-22T16:50:25;20.50;99.90
31619;DHT22;18230;51.502;7.108;2023-06-22T16:55:29;20.60;99.90
31619;DHT22;18230;51.502;7.108;2023-06-22T17:00:30;20.60;99.90
31619;DHT22;18230;51.502;7.108;2023-06-22T17:05:34;20.50;99.90
31619;DHT22;18230;51.502;7.108;2023-06-22T17:10:36;20.50;99.90
31619;DHT22;18230;51.502;7.108;2023-06-22T17:15:38;20.50;99.90
31619;DHT22;18230;51.502;7.108;2023-06-22T17:20:50;20.50;99.90
31619;DHT22;18230;51.502;7.108;2023-06-22T17:25:52;20.50;99.90
31619;DHT22;18230;51.502;7.108;2023-06-22T17:31:08;20.40;99.90
31619;DHT22;18230;51.502;7.108;2023-06-22T17:36:13;20.50;99.90
31619;DHT22;18230;51.502;7.108;2023-06-22T17:41:17;20.50;99.90
31619;DHT22;18230;51.502;7.108;2023-06-22T17:46:18;20.40;99.90
31619;DHT22;18230;51.502;7.108;2023-06-22T17:51:21;20.50;99.90
31619;DHT22;18230;51.502;7.108;2023-06-22T17:56:24;20.60;99.90
31619;DHT22;18230;51.502;7.108;2023-06-22T18:01:33;20.60;99.90
31619;DHT22;18230;51.502;7.108;2023-06-22T18:06:37;20.60;99.90
31619;DHT22;18230;51.502;7.108;2023-06-22T18:11:48;20.60;99.90
31619;DHT22;18230;51.502;7.108;2023-06-22T18:16:50;20.50;99.90
31619;DHT22;18230;51.502;7.108;2023-06-22T18:21:51;20.50;99.90
31619;DHT22;18230;51.502;7.108;2023-06-22T18:26:53;20.40;99.90
31619;DHT22;18230;51.502;7.108;2023-06-22T18:31:55;20.40;99.90
31619;DHT22;18230;51.502;7.108;2023-06-22T18:36:57;20.60;99.90
31619;DHT22;18230;51.502;7.108;2023-06-22T18:42:00;20.60;99.90
31619;DHT22;18230;51.502;7.108;2023-06-22T18:47:04;20.60;99.90
31619;DHT22;18230;51.502;7.108;2023-06-22T18:52:06;20.60;99.90
31619;DHT22;18230;51.502;7.108;2023-06-22T19:12:55;20.30;99.90
31619;DHT22;18230;51.502;7.108;2023-06-22T19:18:00;20.30;99.90
31619;DHT22;18230;51.502;7.108;2023-06-22T19:23:02;20.40;99.90
31619;DHT22;18230;51.502;7.108;2023-06-22T19:28:10;20.50;99.90
31619;DHT22;18230;51.502;7.108;2023-06-22T19:33:12;20.50;99.90
31619;DHT22;18230;51.502;7.108;2023-06-22T19:38:16;20.50;99.90
31619;DHT22;18230;51.502;7.108;2023-06-22T19:43:17;20.60;99.90
31619;DHT22;18230;51.502;7.108;2023-06-22T19:48:18;20.60;99.90
31619;DHT22;18230;51.502;7.108;2023-06-22T19:53:19;20.60;99.90
31619;DHT22;18230;51.502;7.108;2023-06-22T19:58:20;20.60;99.90
31619;DHT22;18230;51.502;7.108;2023-06-22T20:03:28;20.60;99.90
31619;DHT22;18230;51.502;7.108;2023-06-22T20:08:42;20.50;99.90
31619;DHT22;18230;51.502;7.108;2023-06-22T20:13:51;20.00;99.90
31619;DHT22;18230;51.502;7.108;2023-06-22T20:19:09;19.70;99.90
31619;DHT22;18230;51.502;7.108;2023-06-22T20:24:12;19.50;99.90
31619;DHT22;18230;51.502;7.108;2023-06-22T20:29:32;19.20;99.90
31619;DHT22;18230;51.502;7.108;2023-06-22T20:34:41;19.00;99.90
31619;DHT22;18230;51.502;7.108;2023-06-22T20:39:43;18.90;99.90
31619;DHT22;18230;51.502;7.108;2023-06-22T20:44:44;18.70;99.90
31619;DHT22;18230;51.502;7.108;2023-06-22T20:49:49;18.70;99.90
31619;DHT22;18230;51.502;7.108;2023-06-22T20:54:50;18.60;99.90
31619;DHT22;18230;51.502;7.108;2023-06-22T20:59:52;18.50;99.90
31619;DHT22;18230;51.502;7.108;2023-06-22T21:04:53;18.50;99.90
31619;DHT22;18230;51.502;7.108;2023-06-22T21:09:55;18.30;99.90
31619;DHT22;18230;51.502;7.108;2023-06-22T21:14:55;18.00;99.90
31619;DHT22;18230;51.502;7.108;2023-06-22T21:19:56;17.70;99.90
31619;DHT22;18230;51.502;7.108;2023-06-22T21:25:08;17.50;99.90
31619;DHT22;18230;51.502;7.108;2023-06-22T21:30:18;17.50;99.90
31619;DHT22;18230;51.502;7.108;2023-06-22T21:35:18;17.40;99.90
31619;DHT22;18230;51.502;7.108;2023-06-22T21:40:19;17.50;99.90
31619;DHT22;18230;51.502;7.108;2023-06-22T21:45:20;17.50;99.90
31619;DHT22;18230;51.502;7.108;2023-06-22T21:50:21;17.50;99.90
31619;DHT22;18230;51.502;7.108;2023-06-22T21:55:21;17.50;99.90
31619;DHT22;18230;51.502;7.108;2023-06-22T22:00:22;17.50;99.90
31619;DHT22;18230;51.502;7.108;2023-06-22T22:05:23;17.30;99.90
31619;DHT22;18230;51.502;7.108;2023-06-22T22:10:23;17.20;99.90
31619;DHT22;18230;51.502;7.108;2023-06-22T22:15:24;17.20;99.90
31619;DHT22;18230;51.502;7.108;2023-06-22T22:20:25;17.20;99.90
31619;DHT22;18230;51.502;7.108;2023-06-22T22:25:26;17.20;99.90
31619;DHT22;18230;51.502;7.108;2023-06-22T22:30:27;17.20;99.90
31619;DHT22;18230;51.502;7.108;2023-06-22T22:35:27;17.20;99.90
31619;DHT22;18230;51.502;7.108;2023-06-22T22:40:28;17.30;99.90
31619;DHT22;18230;51.502;7.108;2023-06-22T22:45:29;17.20;99.90
31619;DHT22;18230;51.502;7.108;2023-06-22T22:50:30;17.20;99.90
31619;DHT22;18230;51.502;7.108;2023-06-22T22:55:32;17.20;99.90
31619;DHT22;18230;51.502;7.108;2023-06-22T23:00:33;17.20;99.90
31619;DHT22;18230;51.502;7.108;2023-06-22T23:05:33;17.10;99.90
31619;DHT22;18230;51.502;7.108;2023-06-22T23:10:37;17.10;99.90
31619;DHT22;18230;51.502;7.108;2023-06-22T23:15:37;17.10;99.90
31619;DHT22;18230;51.502;7.108;2023-06-22T23:20:38;17.10;99.90
31619;DHT22;18230;51.502;7.108;2023-06-22T23:25:39;17.10;99.90
31619;DHT22;18230;51.502;7.108;2023-06-22T23:30:39;17.10;99.90
31619;DHT22;18230;51.502;7.108;2023-06-22T23:35:40;17.00;99.90
31619;DHT22;18230;51.502;7.108;2023-06-22T23:40:41;17.00;99.90
31619;DHT22;18230;51.502;7.108;2023-06-22T23:45:41;17.00;99.90
31619;DHT22;18230;51.502;7.108;2023-06-22T23:50:42;16.90;99.90
31619;DHT22;18230;51.502;7.108;2023-06-22T23:55:42;16.90;99.90
